KCUT

Custer County Airport

Custer, South Dakota, USA
METAR KCUT 190553Z AUTO 26007KT 10SM CLR 07/M05 A2977 RMK AO2 SLP054 T00671050 10078 20061 58017
Observed Flight Rules
Jan-19 @ 05:53 UTC (an hour ago) Visual Flight Rules
Wind Visibility Clouds
260° at 7 knots 10 miles
  • Clear skies
Temperatures Readings
Current 7°C / 45°F
Dewpoint -5°C / 23°F
Humidity 42%
Altimeter 29.77" Hg
Pressure 1005.4 hPa
Elevation 1725
METAR KCUT 190553Z AUTO 26007KT 10SM CLR 07/M05 A2977 RMK AO2 SLP054 T00671050 10078 20061 58017
Observed Flight Rules
Jan-19 @ 05:53 UTC
(an hour ago)
VFR
Wind Visibility
260° at 7 knots 10 miles
Clouds
  • Clear skies
Temperature Dewpoint
7°C / 45°F -5°C / 23°F
Humidity Altimeter Pressure
42% 29.77" Hg 1005.4 hPa